.
WxDataArchive / Data Records for 2015-12-04
2015-12-03 December 2015 2015-12-05

Data Records for Friday, 04 December 2015

Time	Temp	Chill	HIndex	Humid	Dewpt	 Wind 	HiWind	WindDir	Rain 	Barom
-----	----	-----	------	-----	-----	------	------	-------	-----	-----
00:00	33.1	33.1	33.1	84	28.8	0	3	248	0.00	30.407 
00:05	33.1	33.1	33.1	84	28.8	1	4	248	0.00	30.407 
00:10	33.1	33.1	33.1	84	28.8	0	2	248	0.00	30.407 
00:15	33.1	33.1	33.1	84	28.8	1	3	248	0.00	30.409 
00:20	33.1	33.1	33.1	85	29.1	1	4	248	0.00	30.409 
00:25	32.9	32.9	32.9	85	28.9	1	4	270	0.00	30.409 
00:30	32.8	32.8	32.8	85	28.8	1	4	292	0.00	30.411 
00:35	32.7	32.7	32.7	85	28.7	1	4	270	0.00	30.411 
00:40	32.7	32.7	32.7	86	29.0	1	4	270	0.00	30.411 
00:45	32.5	32.5	32.5	86	28.8	2	4	270	0.00	30.412 
00:50	32.4	32.4	32.4	86	28.7	1	4	248	0.00	30.412 
00:55	32.2	32.2	32.2	87	28.8	2	4	248	0.00	30.412 
01:00	32.1	32.1	32.1	87	28.7	2	5	270	0.00	30.420 
01:05	32.1	32.1	32.1	87	28.7	2	4	270	0.00	30.420 
01:10	32.1	32.1	32.1	88	29.0	0	2	270	0.00	30.420 
01:15	32.1	32.1	32.1	88	29.0	0	3	270	0.00	30.420 
01:20	32.1	32.1	32.1	88	29.0	0	2	270	0.00	30.420 
01:25	32.2	32.2	32.2	88	29.1	1	4	270	0.00	30.420 
01:30	32.1	32.1	32.1	88	29.0	1	4	248	0.00	30.409 
01:35	32.1	32.1	32.1	88	29.0	1	4	248	0.00	30.409 
01:40	32.1	32.1	32.1	88	29.0	1	4	248	0.00	30.409 
01:45	32.1	32.1	32.1	89	29.2	0	2	248	0.00	30.407 
01:50	32.2	32.2	32.2	89	29.3	0	3	248	0.00	30.407 
01:55	32.2	32.2	32.2	89	29.3	1	3	248	0.00	30.407 
02:00	32.1	32.1	32.1	89	29.2	1	3	248	0.00	30.409 
02:05	31.9	31.9	31.9	89	29.0	1	2	248	0.00	30.409 
02:10	31.9	31.9	31.9	89	29.0	1	3	248	0.00	30.409 
02:15	31.8	31.8	31.8	89	28.9	1	3	248	0.00	30.416 
02:20	31.8	31.8	31.8	90	29.2	0	2	248	0.00	30.416 
02:25	31.8	31.8	31.8	90	29.2	1	4	248	0.00	30.416 
02:30	31.6	31.6	31.6	90	29.0	1	3	248	0.00	30.417 
02:35	31.6	31.6	31.6	90	29.0	0	2	248	0.00	30.417 
02:40	31.6	31.6	31.6	90	29.0	1	4	248	0.00	30.417 
02:45	31.6	31.6	31.6	90	29.0	1	3	248	0.00	30.424 
02:50	31.5	31.5	31.5	90	28.9	1	4	338	0.00	30.424 
02:55	31.5	31.5	31.5	90	28.9	2	5	292	0.00	30.424 
03:00	31.5	31.5	31.5	90	28.9	1	3	270	0.00	30.428 
03:05	31.5	31.5	31.5	90	28.9	1	3	248	0.00	30.428 
03:10	31.5	31.5	31.5	90	28.9	0	2	248	0.00	30.428 
03:15	31.5	31.5	31.5	90	28.9	0	3	248	0.00	30.436 
03:20	31.5	31.5	31.5	91	29.2	1	4	248	0.00	30.436 
03:25	31.5	31.5	31.5	91	29.2	0	3	270	0.00	30.436 
03:30	31.5	31.5	31.5	91	29.2	0	2	270	0.00	30.430 
03:35	31.5	31.5	31.5	91	29.2	0	3	270	0.00	30.430 
03:40	31.5	31.5	31.5	91	29.2	0	1	270	0.00	30.430 
03:45	31.3	31.3	31.3	91	29.0	0	3	270	0.00	30.427 
03:50	31.3	31.3	31.3	91	29.0	0	2	270	0.00	30.427 
03:55	31.3	31.3	31.3	90	28.7	1	3	270	0.00	30.427 
04:00	31.2	31.2	31.2	91	28.9	0	4	270	0.00	30.425 
04:05	31.0	31.0	31.0	90	28.4	1	3	270	0.00	30.425 
04:10	31.0	31.0	31.0	90	28.4	0	2	270	0.00	30.425 
04:15	31.0	31.0	31.0	91	28.7	1	4	0	0.00	30.430 
04:20	31.0	31.0	31.0	90	28.4	1	5	292	0.00	30.430 
04:25	31.0	31.0	31.0	90	28.4	1	3	292	0.00	30.430 
04:30	31.2	31.2	31.2	90	28.6	0	3	292	0.00	30.440 
04:35	31.2	31.2	31.2	90	28.6	1	3	292	0.00	30.440 
04:40	31.2	31.2	31.2	90	28.6	1	4	292	0.00	30.440 
04:45	31.2	31.2	31.2	90	28.6	0	3	292	0.00	30.441 
04:50	31.3	31.3	31.3	90	28.7	1	3	292	0.00	30.441 
04:55	31.2	31.2	31.2	90	28.6	0	2	292	0.00	30.441 
05:00	31.3	31.3	31.3	90	28.7	0	2	292	0.00	30.444 
05:05	31.3	31.3	31.3	90	28.7	1	2	292	0.00	30.444 
05:10	31.3	31.3	31.3	90	28.7	1	4	292	0.00	30.444 
05:15	31.5	31.5	31.5	90	28.9	0	1	292	0.00	30.453 
05:20	31.5	31.5	31.5	89	28.6	1	3	292	0.00	30.453 
05:25	31.3	31.3	31.3	89	28.4	1	3	292	0.00	30.453 
05:30	31.3	31.3	31.3	89	28.4	1	3	270	0.00	30.458 
05:35	31.3	31.3	31.3	89	28.4	1	3	270	0.00	30.458 
05:40	31.5	31.5	31.5	89	28.6	0	2	270	0.00	30.458 
05:45	31.5	31.5	31.5	89	28.6	1	3	270	0.00	30.460 
05:50	31.6	31.6	31.6	89	28.7	0	2	270	0.00	30.460 
05:55	31.6	31.6	31.6	88	28.5	0	3	270	0.00	30.460 
06:00	31.6	31.6	31.6	88	28.5	0	3	270	0.00	30.460 
06:05	31.6	31.6	31.6	88	28.5	0	2	270	0.00	30.460 
06:10	31.6	31.6	31.6	88	28.5	1	4	270	0.00	30.460 
06:15	31.6	31.6	31.6	88	28.5	2	5	315	0.00	30.467 
06:20	31.6	31.6	31.6	88	28.5	1	3	315	0.00	30.467 
06:25	31.6	31.6	31.6	87	28.2	1	3	292	0.00	30.467 
06:30	31.6	31.6	31.6	87	28.2	0	2	292	0.00	30.475 
06:35	31.8	31.8	31.8	87	28.4	1	4	292	0.00	30.475 
06:40	31.8	31.8	31.8	87	28.4	0	2	270	0.00	30.475 
06:45	31.8	31.8	31.8	87	28.4	2	4	270	0.00	30.480 
06:50	31.8	31.8	31.8	87	28.4	1	3	270	0.00	30.480 
06:55	31.9	31.9	31.9	87	28.5	0	2	270	0.00	30.480 
07:00	31.9	31.9	31.9	87	28.5	1	3	270	0.00	30.483 
07:05	31.9	31.9	31.9	86	28.2	0	1	270	0.00	30.483 
07:10	32.1	32.1	32.1	86	28.4	0	1	270	0.00	30.483 
07:15	32.1	32.1	32.1	86	28.4	1	2	270	0.00	30.492 
07:20	32.1	32.1	32.1	86	28.4	1	4	270	0.00	30.492 
07:25	32.1	32.1	32.1	86	28.4	0	2	270	0.00	30.492 
07:30	32.2	32.2	32.2	86	28.5	0	2	270	0.00	30.497 
07:35	32.2	32.2	32.2	85	28.2	1	4	270	0.00	30.497 
07:40	32.2	32.2	32.2	85	28.2	0	2	270	0.00	30.497 
07:45	32.4	32.4	32.4	85	28.4	1	2	270	0.00	30.507 
07:50	32.4	32.4	32.4	85	28.4	0	1	270	0.00	30.507 
07:55	32.4	32.4	32.4	85	28.4	1	3	270	0.00	30.507 
08:00	32.5	32.5	32.5	85	28.5	0	2	270	0.00	30.507 
08:05	32.5	32.5	32.5	85	28.5	1	3	270	0.00	30.507 
08:10	32.7	32.7	32.7	85	28.7	0	2	270	0.00	30.507 
08:15	32.8	32.8	32.8	85	28.8	1	3	270	0.00	30.509 
08:20	32.9	32.9	32.9	85	28.9	0	3	270	0.00	30.509 
08:25	32.9	32.9	32.9	85	28.9	0	3	270	0.00	30.509 
08:30	33.1	33.1	33.1	85	29.1	1	2	270	0.00	30.509 
08:35	33.2	33.2	33.2	85	29.2	0	3	270	0.00	30.509 
08:40	33.4	33.4	33.4	85	29.4	0	2	270	0.00	30.509 
08:45	33.5	33.5	33.5	85	29.5	0	3	270	0.00	30.513 
08:50	33.5	33.5	33.5	85	29.5	1	4	270	0.00	30.513 
08:55	33.7	33.7	33.7	85	29.7	0	2	270	0.00	30.513 
09:00	33.8	33.8	33.8	85	29.8	1	4	270	0.00	30.522 
09:05	34.0	34.0	34.0	85	30.0	0	2	270	0.00	30.522 
09:10	34.1	34.1	34.1	85	30.1	1	2	270	0.00	30.522 
09:15	34.3	34.3	34.3	84	30.0	1	3	270	0.00	30.531 
09:20	34.3	34.3	34.3	84	30.0	1	6	292	0.00	30.531 
09:25	34.6	34.6	34.6	84	30.3	0	2	292	0.00	30.531 
09:30	34.7	34.7	34.7	84	30.4	1	2	292	0.00	30.536 
09:35	34.9	34.9	34.9	84	30.6	0	3	292	0.00	30.536 
09:40	34.9	34.9	34.9	84	30.6	1	4	292	0.00	30.536 
09:45	35.0	35.0	35.0	84	30.7	1	2	292	0.00	30.545 
09:50	35.3	35.3	35.3	83	30.7	1	2	292	0.00	30.545 
09:55	35.5	35.5	35.5	83	30.9	1	3	292	0.00	30.545 
10:00	35.6	35.6	35.6	83	31.0	1	4	292	0.00	30.547 
10:05	35.8	35.8	35.8	83	31.2	0	2	292	0.00	30.547 
10:10	35.9	35.9	35.9	82	31.0	0	2	292	0.00	30.547 
10:15	36.0	36.0	36.0	82	31.0	1	3	292	0.00	30.551 
10:20	36.0	36.0	36.0	82	31.0	1	4	292	0.00	30.551 
10:25	36.2	36.2	36.2	82	31.2	0	2	292	0.00	30.551 
10:30	36.5	36.5	36.5	82	31.5	0	3	292	0.00	30.547 
10:35	36.8	36.8	36.8	82	31.8	0	3	292	0.00	30.547 
10:40	36.9	36.9	36.9	81	31.6	1	4	292	0.00	30.547 
10:45	36.9	36.9	36.9	81	31.6	0	2	292	0.00	30.547 
10:50	37.3	37.3	37.3	81	32.0	0	2	292	0.00	30.547 
10:55	37.8	37.8	37.8	81	32.5	1	3	292	0.00	30.547 
11:00	38.0	38.0	38.0	80	32.4	1	3	292	0.00	30.549 
11:05	38.0	38.0	38.0	79	32.1	1	3	292	0.00	30.549 
11:10	38.0	38.0	38.0	79	32.1	1	4	292	0.00	30.549 
11:15	38.2	38.2	38.2	79	32.3	0	2	248	0.00	30.549 
11:20	38.5	38.5	38.5	79	32.6	1	3	248	0.00	30.549 
11:25	38.6	38.6	38.6	78	32.3	0	2	248	0.00	30.549 
11:30	38.8	38.8	38.8	78	32.5	1	3	248	0.00	30.548 
11:35	39.1	39.1	39.1	78	32.8	0	3	248	0.00	30.548 
11:40	39.2	39.2	39.2	77	32.6	1	4	248	0.00	30.548 
11:45	39.1	39.1	39.1	78	32.8	0	2	248	0.00	30.541 
11:50	39.3	39.3	39.3	77	32.7	1	4	248	0.00	30.541 
11:55	39.3	39.3	39.3	77	32.7	1	3	248	0.00	30.541 
12:00	39.3	39.3	39.3	77	32.7	0	3	248	0.00	30.538 
12:05	39.6	39.6	39.6	77	33.0	1	4	248	0.00	30.538 
12:10	39.8	39.8	39.8	76	32.9	1	4	248	0.00	30.538 
12:15	39.9	39.9	39.9	77	33.3	0	2	248	0.00	30.540 
12:20	40.3	40.3	40.3	76	33.3	1	3	248	0.00	30.540 
12:25	40.5	40.5	40.5	75	33.2	0	2	248	0.00	30.540 
12:30	40.8	40.8	40.8	75	33.5	1	3	248	0.00	30.542 
12:35	40.9	40.9	40.9	75	33.6	0	3	248	0.00	30.542 
12:40	41.1	41.1	41.1	74	33.5	0	2	248	0.00	30.542 
12:45	41.2	41.2	41.2	74	33.6	1	4	248	0.00	30.541 
12:50	41.5	41.5	41.5	74	33.8	1	3	248	0.00	30.541 
12:55	41.3	41.3	41.3	73	33.3	1	3	248	0.00	30.541 
13:00	41.5	41.5	41.5	74	33.8	0	2	248	0.00	30.537 
13:05	41.8	41.8	41.8	74	34.1	0	2	248	0.00	30.537 
13:10	41.9	41.9	41.9	73	33.9	1	2	248	0.00	30.537 
13:15	41.8	41.8	41.8	73	33.8	1	3	248	0.00	30.539 
13:20	41.8	41.8	41.8	73	33.8	0	2	248	0.00	30.539 
13:25	41.8	41.8	41.8	72	33.4	1	4	248	0.00	30.539 
13:30	42.1	42.1	42.1	73	34.1	0	2	248	0.00	30.540 
13:35	42.3	42.3	42.3	73	34.3	1	3	248	0.00	30.540 
13:40	42.5	42.5	42.5	72	34.1	1	3	248	0.00	30.540 
13:45	42.5	42.5	42.5	71	33.8	1	4	248	0.00	30.538 
13:50	42.5	42.5	42.5	72	34.1	0	2	248	0.00	30.538 
13:55	42.6	42.6	42.6	72	34.2	0	2	248	0.00	30.538 
14:00	42.8	42.8	42.8	72	34.4	1	3	248	0.00	30.535 
14:05	42.8	42.8	42.8	71	34.1	0	2	248	0.00	30.535 
14:10	42.9	42.9	42.9	71	34.2	1	3	248	0.00	30.535 
14:15	43.1	43.1	43.1	71	34.3	0	2	248	0.00	30.534 
14:20	43.1	43.1	43.1	70	34.0	1	4	248	0.00	30.534 
14:25	43.1	43.1	43.1	71	34.3	0	2	248	0.00	30.534 
14:30	43.2	43.2	43.2	71	34.4	0	2	248	0.00	30.534 
14:35	43.3	43.3	43.3	70	34.2	1	3	248	0.00	30.534 
14:40	43.2	43.2	43.2	70	34.1	1	4	248	0.00	30.534 
14:45	43.1	43.1	43.1	70	34.0	1	3	248	0.00	30.533 
14:50	43.1	43.1	43.1	71	34.3	0	3	248	0.00	30.533 
14:55	43.1	43.1	43.1	70	34.0	1	3	248	0.00	30.533 
15:00	43.1	43.1	43.1	71	34.3	1	4	248	0.00	30.535 
15:05	43.1	43.1	43.1	70	34.0	1	3	248	0.00	30.535 
15:10	42.8	42.8	42.8	71	34.1	0	2	248	0.00	30.535 
15:15	42.8	42.8	42.8	71	34.1	0	2	248	0.00	30.537 
15:20	43.1	43.1	43.1	71	34.3	0	1	248	0.00	30.537 
15:25	43.1	43.1	43.1	70	34.0	0	3	248	0.00	30.537 
15:30	42.9	42.9	42.9	70	33.8	1	2	248	0.00	30.542 
15:35	42.8	42.8	42.8	71	34.1	0	2	248	0.00	30.542 
15:40	42.6	42.6	42.6	71	33.9	0	2	248	0.00	30.542 
15:45	42.6	42.6	42.6	71	33.9	0	2	248	0.00	30.547 
15:50	42.5	42.5	42.5	71	33.8	1	3	248	0.00	30.547 
15:55	42.2	42.2	42.2	72	33.8	0	3	248	0.00	30.547 
16:00	42.1	42.1	42.1	72	33.7	0	3	248	0.00	30.551 
16:05	42.1	42.1	42.1	73	34.1	0	1	248	0.00	30.551 
16:10	41.9	41.9	41.9	73	33.9	0	2	248	0.00	30.551 
16:15	41.8	41.8	41.8	73	33.8	0	1	248	0.00	30.560 
16:20	41.5	41.5	41.5	74	33.8	0	2	248	0.00	30.560 
16:25	41.3	41.3	41.3	74	33.6	0	2	248	0.00	30.560 
16:30	41.1	41.1	41.1	75	33.8	0	2	248	0.00	30.566 
16:35	40.9	40.9	40.9	75	33.6	0	3	248	0.00	30.566 
16:40	40.6	40.6	40.6	76	33.6	0	2	248	0.00	30.566 
16:45	40.3	40.3	40.3	76	33.3	0	1	248	0.00	30.568 
16:50	40.2	40.2	40.2	77	33.6	0	1	248	0.00	30.568 
16:55	39.9	39.9	39.9	77	33.3	0	1	248	0.00	30.568 
17:00	39.6	39.6	39.6	78	33.3	0	1	248	0.00	30.574 
17:05	39.3	39.3	39.3	78	33.0	0	2	248	0.00	30.574 
17:10	39.2	39.2	39.2	79	33.2	0	1	248	0.00	30.574 
17:15	38.9	38.9	38.9	79	33.0	0	1	248	0.00	30.578 
17:20	38.8	38.8	38.8	80	33.2	0	1	248	0.00	30.578 
17:25	38.5	38.5	38.5	80	32.9	0	1	248	0.00	30.578 
17:30	38.3	38.3	38.3	81	33.0	0	1	248	0.00	30.583 
17:35	38.0	38.0	38.0	81	32.7	0	1	248	0.00	30.583 
17:40	37.9	37.9	37.9	81	32.6	0	0	---	0.00	30.583 
17:45	37.6	37.6	37.6	81	32.3	0	0	---	0.00	30.585 
17:50	37.3	37.3	37.3	82	32.3	0	0	---	0.00	30.585 
17:55	37.2	37.2	37.2	83	32.5	0	1	248	0.00	30.585 
18:00	37.0	37.0	37.0	83	32.3	0	1	248	0.00	30.590 
18:05	36.9	36.9	36.9	83	32.2	0	0	---	0.00	30.590 
18:10	36.8	36.8	36.8	84	32.4	0	0	---	0.00	30.590 
18:15	36.6	36.6	36.6	84	32.2	0	2	248	0.00	30.593 
18:20	36.6	36.6	36.6	84	32.2	0	2	248	0.00	30.593 
18:25	36.5	36.5	36.5	85	32.4	0	0	---	0.00	30.593 
18:30	36.3	36.3	36.3	85	32.2	0	1	248	0.00	30.592 
18:35	36.3	36.3	36.3	85	32.2	0	0	---	0.00	30.592 
18:40	36.2	36.2	36.2	85	32.1	0	0	---	0.00	30.592 
18:45	36.0	36.0	36.0	85	31.9	0	0	---	0.00	30.597 
18:50	35.9	35.9	35.9	86	32.1	0	0	---	0.00	30.597 
18:55	35.8	35.8	35.8	86	32.0	0	0	---	0.00	30.597 
19:00	35.6	35.6	35.6	86	31.8	0	0	---	0.00	30.600 
19:05	35.6	35.6	35.6	86	31.8	0	0	---	0.00	30.600 
19:10	35.6	35.6	35.6	87	32.1	0	1	248	0.00	30.600 
19:15	35.6	35.6	35.6	87	32.1	0	0	---	0.00	30.603 
19:20	35.6	35.6	35.6	87	32.1	0	1	248	0.00	30.603 
19:25	35.5	35.5	35.5	87	32.0	0	1	248	0.00	30.603 
19:30	35.5	35.5	35.5	87	32.0	0	0	---	0.00	30.605 
19:35	35.5	35.5	35.5	87	32.0	0	0	---	0.00	30.605 
19:40	35.6	35.6	35.6	88	32.4	0	2	248	0.00	30.605 
19:45	35.6	35.6	35.6	88	32.4	0	0	---	0.00	30.607 
19:50	35.6	35.6	35.6	88	32.4	0	1	248	0.00	30.607 
19:55	35.6	35.6	35.6	88	32.4	0	1	248	0.00	30.607 
20:00	35.6	35.6	35.6	88	32.4	0	1	248	0.00	30.612 
20:05	35.6	35.6	35.6	88	32.4	0	0	---	0.00	30.612 
20:10	35.6	35.6	35.6	88	32.4	0	1	248	0.00	30.612 
20:15	35.6	35.6	35.6	88	32.4	0	1	248	0.00	30.612 
20:20	35.8	35.8	35.8	88	32.6	0	1	248	0.00	30.612 
20:25	35.6	35.6	35.6	88	32.4	0	1	248	0.00	30.612 
20:30	35.6	35.6	35.6	88	32.4	0	1	248	0.00	30.614 
20:35	35.6	35.6	35.6	88	32.4	0	1	248	0.00	30.614 
20:40	35.6	35.6	35.6	88	32.4	0	2	248	0.00	30.614 
20:45	35.8	35.8	35.8	88	32.6	0	1	248	0.00	30.610 
20:50	35.6	35.6	35.6	88	32.4	0	0	---	0.00	30.610 
20:55	35.6	35.6	35.6	88	32.4	0	1	248	0.00	30.610 
21:00	35.5	35.5	35.5	88	32.3	0	1	248	0.00	30.610 
21:05	35.3	35.3	35.3	88	32.1	0	1	248	0.00	30.610 
21:10	35.2	35.2	35.2	88	32.0	0	1	248	0.00	30.610 
21:15	35.2	35.2	35.2	88	32.0	0	1	248	0.00	30.608 
21:20	35.0	35.0	35.0	88	31.8	0	1	248	0.00	30.608 
21:25	35.2	35.2	35.2	88	32.0	0	1	248	0.00	30.608 
21:30	35.2	35.2	35.2	88	32.0	0	1	248	0.00	30.603 
21:35	35.0	35.0	35.0	88	31.8	0	1	248	0.00	30.603 
21:40	35.0	35.0	35.0	89	32.1	0	0	---	0.00	30.603 
21:45	35.0	35.0	35.0	89	32.1	0	2	248	0.00	30.602 
21:50	34.9	34.9	34.9	89	32.0	0	1	248	0.00	30.602 
21:55	34.9	34.9	34.9	89	32.0	0	1	248	0.00	30.602 
22:00	34.7	34.7	34.7	89	31.8	0	1	248	0.00	30.604 
22:05	34.7	34.7	34.7	89	31.8	0	3	248	0.00	30.604 
22:10	34.7	34.7	34.7	89	31.8	0	1	248	0.00	30.604 
22:15	34.7	34.7	34.7	89	31.8	0	1	248	0.00	30.608 
22:20	34.7	34.7	34.7	89	31.8	0	1	248	0.00	30.608 
22:25	34.7	34.7	34.7	89	31.8	0	1	248	0.00	30.608 
22:30	34.7	34.7	34.7	89	31.8	0	1	248	0.00	30.613 
22:35	34.7	34.7	34.7	89	31.8	0	2	248	0.00	30.613 
22:40	34.7	34.7	34.7	89	31.8	0	0	---	0.00	30.613 
22:45	34.7	34.7	34.7	90	32.1	0	1	248	0.00	30.608 
22:50	34.7	34.7	34.7	89	31.8	0	0	---	0.00	30.608 
22:55	34.7	34.7	34.7	90	32.1	0	1	248	0.00	30.608 
23:00	34.6	34.6	34.6	90	32.0	0	1	248	0.00	30.608 
23:05	34.6	34.6	34.6	90	32.0	0	1	248	0.00	30.608 
23:10	34.6	34.6	34.6	90	32.0	0	1	248	0.00	30.608 
23:15	34.6	34.6	34.6	90	32.0	0	0	---	0.00	30.607 
23:20	34.6	34.6	34.6	90	32.0	0	1	248	0.00	30.607 
23:25	34.4	34.4	34.4	90	31.8	0	2	248	0.00	30.607 
23:30	34.3	34.3	34.3	90	31.7	0	2	248	0.00	30.615 
23:35	34.1	34.1	34.1	90	31.5	1	2	248	0.00	30.615 
23:40	34.0	34.0	34.0	90	31.4	0	2	248	0.00	30.615 
23:45	33.8	33.8	33.8	90	31.2	1	3	248	0.00	30.618 
23:50	33.8	33.8	33.8	90	31.2	0	3	248	0.00	30.618 
23:55	33.8	33.8	33.8	90	31.2	0	2	248	0.00	30.618 

CoCoRaHS
IN-AL-39
A2 Web Hosting
Creative Commons License
GoDaddy
search engine by freefind advanced

loaded 2018-11-16 23:56:37 • last modified 2010-11-18 10:43:29
Privacy PolicyDisclaimer
• wx.awcolley.com is powered by PmWiki v.2002016 •
• all content (unless otherwise noted) © 2018 A W Colley